Time;durP1;ratioP1;P1;durP2;ratioP2;P2;SDS_P1;SDS_P2;PMS_P1;PMS_P2;Temp;Humidity;BMP_temperature;BMP_pressure;BME280_temperature;BME280_humidity;BME280_pressure;Samples;Min_cycle;Max_cycle;Signal;HPM_P1;HPM_P2
2021/12/29 00:01:57;;;;;;;21.27;5.28;;;14.10;99.90;;;;;;5019456;28;20359;-77
2021/12/29 00:04:24;;;;;;;23.55;7.32;;;14.10;99.90;;;;;;5017634;28;20022;-76
2021/12/29 00:06:50;;;;;;;24.65;3.80;;;14.10;99.90;;;;;;5017910;28;20030;-78
2021/12/29 00:09:16;;;;;;;21.20;7.43;;;14.10;99.90;;;;;;5018584;28;20054;-79
2021/12/29 00:11:42;;;;;;;20.80;4.95;;;14.10;99.90;;;;;;5017651;28;20504;-76
2021/12/29 00:14:09;;;;;;;20.08;4.95;;;14.20;99.90;;;;;;5019008;28;20022;-76
2021/12/29 00:16:35;;;;;;;17.95;4.93;;;14.20;99.90;;;;;;5018815;28;20034;-75
2021/12/29 00:19:05;;;;;;;14.65;3.85;;;14.30;99.90;;;;;;5050675;28;20086;-75
2021/12/29 00:21:35;;;;;;;15.40;3.95;;;14.30;99.90;;;;;;5018930;28;20414;-76
2021/12/29 00:24:02;;;;;;;23.10;4.32;;;14.30;99.90;;;;;;5018470;28;20030;-75
2021/12/29 00:26:29;;;;;;;17.05;4.30;;;14.30;99.90;;;;;;5018644;28;20026;-76
2021/12/29 00:28:58;;;;;;;18.42;5.28;;;14.30;99.90;;;;;;5018715;28;20033;-75
2021/12/29 00:31:28;;;;;;;17.90;4.47;;;14.20;99.90;;;;;;5017391;28;20037;-78
2021/12/29 00:33:54;;;;;;;19.13;5.00;;;14.20;99.90;;;;;;5018572;28;20026;-75
2021/12/29 00:36:20;;;;;;;16.15;3.47;;;14.30;99.90;;;;;;5018434;28;20281;-77
2021/12/29 00:38:46;;;;;;;18.90;5.18;;;14.30;99.90;;;;;;5018507;28;20026;-78
2021/12/29 00:41:13;;;;;;;18.58;4.22;;;14.30;99.90;;;;;;5018441;28;20029;-77
2021/12/29 00:43:38;;;;;;;14.18;4.60;;;14.30;99.90;;;;;;5018528;28;20022;-77
2021/12/29 00:46:07;;;;;;;21.50;5.53;;;14.30;99.90;;;;;;5016965;28;20398;-78
2021/12/29 00:48:38;;;;;;;21.73;5.43;;;14.40;99.90;;;;;;5018370;28;20034;-78
2021/12/29 00:51:04;;;;;;;15.68;4.13;;;14.30;99.90;;;;;;5018569;28;20484;-78
2021/12/29 00:53:30;;;;;;;15.60;4.95;;;14.30;99.90;;;;;;5018197;28;20030;-78
2021/12/29 00:55:56;;;;;;;22.75;4.22;;;14.30;99.90;;;;;;5016864;28;20033;-77
2021/12/29 00:58:21;;;;;;;19.02;4.10;;;14.40;99.90;;;;;;5018402;28;20494;-78
2021/12/29 01:00:48;;;;;;;16.73;4.53;;;14.40;99.90;;;;;;5018044;28;20025;-78
2021/12/29 01:03:13;;;;;;;13.20;3.95;;;14.40;99.90;;;;;;5017891;28;20022;-78
2021/12/29 01:05:40;;;;;;;9.45;4.18;;;14.30;99.90;;;;;;5017920;28;20394;-78
2021/12/29 01:08:06;;;;;;;14.95;3.95;;;14.30;99.90;;;;;;5017912;28;20053;-79
2021/12/29 01:10:33;;;;;;;17.88;4.43;;;14.30;99.90;;;;;;5018128;28;20041;-78
2021/12/29 01:13:01;;;;;;;16.48;4.65;;;14.30;99.90;;;;;;5015657;28;20091;-78
2021/12/29 01:15:33;;;;;;;21.33;5.70;;;14.30;99.90;;;;;;5017810;28;20018;-78
2021/12/29 01:18:01;;;;;;;18.33;4.97;;;14.30;99.90;;;;;;5016607;28;20017;-78
2021/12/29 01:20:29;;;;;;;19.10;5.53;;;14.30;99.90;;;;;;5016351;28;20022;-78
2021/12/29 01:22:54;;;;;;;19.27;4.47;;;14.20;99.90;;;;;;5016293;28;20490;-78
2021/12/29 01:25:21;;;;;;;17.27;3.90;;;14.30;99.90;;;;;;5016389;28;20379;-78
2021/12/29 01:27:48;;;;;;;14.68;4.45;;;14.30;99.90;;;;;;5017802;28;20025;-79
2021/12/29 01:30:17;;;;;;;17.33;3.90;;;14.40;99.90;;;;;;5016364;28;20029;-77
2021/12/29 01:32:43;;;;;;;24.42;5.32;;;14.30;99.90;;;;;;5017771;28;20030;-78
2021/12/29 01:35:10;;;;;;;15.90;4.15;;;14.40;99.90;;;;;;5016350;28;20081;-78
2021/12/29 01:37:37;;;;;;;13.35;4.22;;;14.40;99.90;;;;;;5017384;28;20759;-78
2021/12/29 01:40:08;;;;;;;68.30;22.48;;;14.40;99.90;;;;;;5017717;28;20097;-78
2021/12/29 01:42:34;;;;;;;20.10;4.75;;;14.40;99.90;;;;;;5016381;28;20064;-78
2021/12/29 01:45:00;;;;;;;15.18;4.20;;;14.40;99.90;;;;;;5017470;28;20097;-78
2021/12/29 01:47:28;;;;;;;14.32;5.40;;;14.40;99.90;;;;;;5017559;28;20030;-78
2021/12/29 01:49:54;;;;;;;20.35;5.25;;;14.40;99.90;;;;;;5017351;28;20422;-78
2021/12/29 01:52:26;;;;;;;16.80;4.22;;;14.30;99.90;;;;;;5016138;28;20054;-78
2021/12/29 01:54:52;;;;;;;15.35;4.30;;;14.30;99.90;;;;;;5017507;28;20037;-78
2021/12/29 01:57:18;;;;;;;14.18;4.78;;;14.30;99.90;;;;;;5005727;28;20022;-78
2021/12/29 01:59:44;;;;;;;12.30;3.85;;;14.30;99.90;;;;;;5015921;28;20479;-78
2021/12/29 02:02:14;;;;;;;15.90;4.35;;;14.30;99.90;;;;;;5016487;28;20036;-78
2021/12/29 02:04:49;;;;;;;11.82;4.15;;;14.30;99.90;;;;;;5015751;28;20078;-78
2021/12/29 02:07:15;;;;;;;16.42;3.60;;;14.40;99.90;;;;;;5015910;28;20053;-78
2021/12/29 02:09:41;;;;;;;12.10;2.95;;;14.40;99.90;;;;;;5017223;28;20050;-78
2021/12/29 02:12:07;;;;;;;17.70;4.35;;;14.50;99.90;;;;;;5015721;28;20029;-78
2021/12/29 02:14:33;;;;;;;15.32;4.40;;;14.50;99.90;;;;;;5018848;28;20029;-78
2021/12/29 02:16:59;;;;;;;23.45;4.90;;;14.50;99.90;;;;;;5021198;28;20474;-78
2021/12/29 02:19:26;;;;;;;14.55;4.00;;;14.50;99.90;;;;;;5021231;28;20022;-78
2021/12/29 02:22:21;;;;;;;19.85;4.47;;;14.60;99.90;;;;;;5021053;28;20081;-78
2021/12/29 02:24:44;;;;;;;13.75;5.10;;;14.60;99.90;;;;;;5020775;28;20029;-78
2021/12/29 02:27:13;;;;;;;10.10;3.13;;;14.60;99.90;;;;;;5020817;28;20049;-77
2021/12/29 02:29:42;;;;;;;12.68;4.68;;;14.70;99.90;;;;;;5020014;28;20030;-78
2021/12/29 02:32:07;;;;;;;11.77;3.45;;;14.60;99.90;;;;;;5020898;28;20028;-77
2021/12/29 02:34:33;;;;;;;9.77;3.50;;;14.60;99.90;;;;;;5020852;28;20054;-77
2021/12/29 02:37:03;;;;;;;12.23;4.32;;;14.60;99.90;;;;;;5020563;28;20033;-78
2021/12/29 02:39:35;;;;;;;12.38;4.25;;;14.60;99.90;;;;;;5020588;28;20014;-78
2021/12/29 02:42:05;;;;;;;10.55;3.67;;;14.60;99.90;;;;;;5020602;28;20033;-77
2021/12/29 02:44:38;;;;;;;14.05;4.22;;;14.60;99.90;;;;;;5020658;28;20022;-78
2021/12/29 02:47:04;;;;;;;12.43;3.20;;;14.60;99.90;;;;;;5019409;28;20548;-78
2021/12/29 02:49:30;;;;;;;11.02;3.90;;;14.60;99.90;;;;;;5019434;28;20511;-77
2021/12/29 02:51:56;;;;;;;10.07;3.35;;;14.70;99.90;;;;;;5019316;28;20030;-77
2021/12/29 02:54:22;;;;;;;11.10;3.40;;;14.70;99.90;;;;;;5020168;28;20073;-77
2021/12/29 02:56:52;;;;;;;10.90;3.20;;;14.70;99.90;;;;;;5020465;28;20029;-78
2021/12/29 02:59:18;;;;;;;14.45;3.33;;;14.70;99.90;;;;;;5020442;28;20018;-78
2021/12/29 03:01:43;;;;;;;13.40;3.53;;;14.70;99.90;;;;;;5020495;28;20030;-77
2021/12/29 03:04:11;;;;;;;10.35;2.83;;;14.60;99.90;;;;;;5020296;28;20021;-78
2021/12/29 03:06:37;;;;;;;16.70;3.17;;;14.60;99.90;;;;;;5019340;28;20030;-78
2021/12/29 03:09:05;;;;;;;18.55;3.70;;;14.60;99.90;;;;;;5019063;28;20595;-78
2021/12/29 03:11:31;;;;;;;16.25;3.83;;;14.60;99.90;;;;;;5018996;28;20115;-77
2021/12/29 03:13:57;;;;;;;11.20;3.63;;;14.60;99.90;;;;;;5018907;28;20105;-78
2021/12/29 03:16:24;;;;;;;13.95;3.38;;;14.60;99.90;;;;;;5018980;28;20040;-78
2021/12/29 03:18:50;;;;;;;16.45;3.80;;;14.60;99.90;;;;;;5018883;28;20033;-78
2021/12/29 03:21:17;;;;;;;13.63;4.50;;;14.60;99.90;;;;;;5019144;28;20022;-78
2021/12/29 03:23:42;;;;;;;16.17;4.25;;;14.60;99.90;;;;;;5018399;28;20022;-78
2021/12/29 03:26:08;;;;;;;17.08;3.35;;;14.60;99.90;;;;;;5018473;28;20041;-78
2021/12/29 03:28:35;;;;;;;9.50;2.90;;;14.60;99.90;;;;;;5018565;28;20045;-78
2021/12/29 03:31:01;;;;;;;14.90;3.45;;;14.60;99.90;;;;;;5017619;28;20034;-77
2021/12/29 03:33:31;;;;;;;11.10;2.60;;;14.70;99.90;;;;;;5017320;28;20057;-79
2021/12/29 03:36:01;;;;;;;12.45;3.58;;;14.70;99.90;;;;;;5017136;28;20061;-78
2021/12/29 03:38:30;;;;;;;10.18;2.90;;;14.70;99.90;;;;;;5018379;28;20441;-78
2021/12/29 03:40:58;;;;;;;13.68;3.13;;;14.70;99.90;;;;;;5024773;28;20104;-78
2021/12/29 03:43:26;;;;;;;12.40;3.60;;;14.70;99.90;;;;;;5018388;28;20021;-79
2021/12/29 03:45:52;;;;;;;14.68;3.28;;;14.60;99.90;;;;;;5018572;28;20029;-78
2021/12/29 03:48:21;;;;;;;9.68;4.30;;;14.60;99.90;;;;;;5018285;28;20026;-79
2021/12/29 03:50:46;;;;;;;13.20;3.28;;;14.60;99.90;;;;;;5018483;28;20038;-78
2021/12/29 03:53:14;;;;;;;11.93;3.25;;;14.40;99.90;;;;;;5018089;28;20037;-78
2021/12/29 03:55:41;;;;;;;7.70;2.67;;;14.20;99.90;;;;;;5017341;28;20030;-78
2021/12/29 03:58:07;;;;;;;12.00;2.70;;;14.00;99.90;;;;;;5018246;28;20486;-77
2021/12/29 04:00:33;;;;;;;14.98;3.30;;;13.90;99.90;;;;;;5018308;28;20117;-78
2021/12/29 04:02:59;;;;;;;10.50;3.05;;;13.80;99.90;;;;;;5017162;28;20026;-77
2021/12/29 04:05:25;;;;;;;9.45;3.17;;;13.80;99.90;;;;;;5018470;28;20032;-78
2021/12/29 04:07:56;;;;;;;9.10;2.83;;;13.80;99.90;;;;;;4971508;28;1340731;-78
2021/12/29 04:10:22;;;;;;;;;;;13.80;99.90;;;;;;5018377;28;20033;-78
2021/12/29 04:12:48;;;;;;;2.72;2.00;;;13.80;99.90;;;;;;5018908;28;20282;-78
2021/12/29 04:15:15;;;;;;;7.72;2.47;;;13.80;99.90;;;;;;5019139;28;20390;-78
2021/12/29 04:17:42;;;;;;;5.47;2.35;;;13.80;99.90;;;;;;5019283;28;20033;-75
2021/12/29 04:22:54;;;;;;;9.13;2.28;;;13.80;99.90;;;;;;5018629;28;20028;-75
2021/12/29 04:25:24;;;;;;;7.47;2.35;;;13.80;99.90;;;;;;5018743;28;20076;-76
2021/12/29 04:27:54;;;;;;;9.63;2.55;;;13.80;99.90;;;;;;5018112;28;20021;-75
2021/12/29 04:30:21;;;;;;;6.88;2.05;;;13.80;99.90;;;;;;5017508;28;20033;-75
2021/12/29 04:32:46;;;;;;;8.60;2.95;;;13.80;99.90;;;;;;5018858;28;20018;-76
2021/12/29 04:35:12;;;;;;;8.65;2.35;;;13.90;99.90;;;;;;5017184;28;20048;-76
2021/12/29 04:37:38;;;;;;;11.00;3.13;;;13.90;99.90;;;;;;5017582;28;20482;-76
2021/12/29 04:40:06;;;;;;;9.10;2.80;;;14.00;99.90;;;;;;5018602;28;20519;-76
2021/12/29 04:42:31;;;;;;;10.57;2.65;;;13.90;99.90;;;;;;5017183;28;20394;-76
2021/12/29 04:44:57;;;;;;;8.15;2.80;;;13.90;99.90;;;;;;5018391;28;20026;-76
2021/12/29 04:47:28;;;;;;;15.77;3.80;;;14.00;99.90;;;;;;5018486;28;20430;-76
2021/12/29 04:49:56;;;;;;;6.97;2.80;;;14.00;99.90;;;;;;5016948;28;20037;-76
2021/12/29 04:52:22;;;;;;;16.15;2.88;;;14.00;99.90;;;;;;5018264;28;20072;-76
2021/12/29 04:54:48;;;;;;;9.13;3.05;;;14.10;99.90;;;;;;5018172;28;20030;-76
2021/12/29 04:57:15;;;;;;;6.55;2.38;;;14.00;99.90;;;;;;5018245;28;20041;-75
2021/12/29 04:59:41;;;;;;;11.55;2.90;;;14.00;99.90;;;;;;5018202;28;20022;-76
2021/12/29 05:02:07;;;;;;;14.63;3.80;;;14.00;99.90;;;;;;5018345;28;20018;-76
2021/12/29 05:04:34;;;;;;;7.22;2.55;;;14.00;99.90;;;;;;5018139;28;20025;-75
2021/12/29 05:09:46;;;;;;;12.93;2.67;;;14.10;99.90;;;;;;5018306;28;20056;-76
2021/12/29 05:12:13;;;;;;;13.30;3.42;;;14.10;99.90;;;;;;5018151;28;21147;-76
2021/12/29 05:14:39;;;;;;;8.10;2.50;;;14.20;99.90;;;;;;5018263;28;20025;-75
2021/12/29 05:17:05;;;;;;;12.98;2.78;;;14.20;99.90;;;;;;5017864;28;20552;-75
2021/12/29 05:19:32;;;;;;;8.77;2.50;;;14.30;99.90;;;;;;5017785;28;20029;-75
2021/12/29 05:21:58;;;;;;;6.95;2.58;;;14.30;99.90;;;;;;5017688;28;20030;-75
2021/12/29 05:24:24;;;;;;;5.47;2.50;;;14.30;99.90;;;;;;5017640;28;20021;-75
2021/12/29 05:26:50;;;;;;;11.23;3.13;;;14.30;99.90;;;;;;5017612;28;20037;-75
2021/12/29 05:29:16;;;;;;;11.63;2.92;;;14.30;99.90;;;;;;5017907;28;20030;-76
2021/12/29 05:31:42;;;;;;;11.02;2.22;;;14.30;99.90;;;;;;5016864;28;20056;-76
2021/12/29 05:34:08;;;;;;;9.50;2.80;;;14.40;99.90;;;;;;5017868;28;20030;-76
2021/12/29 05:36:34;;;;;;;13.68;3.13;;;14.40;99.90;;;;;;5017454;28;20042;-75
2021/12/29 05:38:59;;;;;;;6.88;2.75;;;14.40;99.90;;;;;;5017483;28;20029;-76
2021/12/29 05:41:25;;;;;;;9.80;2.22;;;14.40;99.90;;;;;;5017422;28;20026;-76
2021/12/29 05:43:51;;;;;;;7.28;3.03;;;14.50;99.90;;;;;;5017642;28;20053;-75
2021/12/29 05:46:17;;;;;;;5.65;2.47;;;14.50;99.90;;;;;;5016137;28;20033;-75
2021/12/29 05:48:43;;;;;;;15.55;3.35;;;14.60;99.90;;;;;;5017244;28;20025;-75
2021/12/29 05:51:12;;;;;;;9.70;2.78;;;14.60;99.90;;;;;;4999863;28;20474;-76
2021/12/29 05:53:39;;;;;;;5.90;2.47;;;14.70;99.90;;;;;;5017251;28;20029;-76
2021/12/29 05:56:05;;;;;;;10.52;2.50;;;14.70;99.90;;;;;;5017303;28;20057;-78
2021/12/29 05:58:31;;;;;;;9.00;2.97;;;14.70;99.90;;;;;;5017358;28;20033;-78
2021/12/29 06:00:57;;;;;;;6.25;2.55;;;14.80;99.90;;;;;;5017355;28;20421;-78
2021/12/29 06:03:23;;;;;;;10.25;2.85;;;14.80;99.90;;;;;;5017466;28;20022;-77
2021/12/29 06:05:48;;;;;;;12.95;2.70;;;14.80;99.90;;;;;;5017176;28;20025;-78
2021/12/29 06:08:14;;;;;;;7.10;2.78;;;14.80;99.90;;;;;;5017086;28;20066;-78
2021/12/29 06:10:41;;;;;;;6.60;2.40;;;14.70;99.90;;;;;;5016585;28;20029;-77
2021/12/29 06:13:07;;;;;;;18.25;4.80;;;14.60;99.90;;;;;;5017782;28;20032;-78
2021/12/29 06:15:33;;;;;;;10.18;3.65;;;14.60;99.90;;;;;;5011074;28;20116;-77
2021/12/29 06:17:59;;;;;;;10.88;3.10;;;14.60;99.90;;;;;;5001819;28;20060;-77
2021/12/29 06:20:25;;;;;;;3.90;2.13;;;14.50;99.90;;;;;;5016503;28;20029;-75
2021/12/29 06:22:51;;;;;;;9.75;2.03;;;14.50;99.90;;;;;;5016390;28;20050;-77
2021/12/29 06:25:18;;;;;;;8.07;1.77;;;14.40;99.90;;;;;;5015264;28;20035;-78
2021/12/29 06:27:44;;;;;;;7.55;2.42;;;14.40;99.90;;;;;;5013422;28;20018;-78
2021/12/29 06:30:12;;;;;;;10.02;2.75;;;14.50;99.90;;;;;;5016497;28;20022;-76
2021/12/29 06:32:39;;;;;;;10.15;2.65;;;14.40;99.90;;;;;;5015238;28;20022;-76
2021/12/29 06:35:06;;;;;;;12.75;3.05;;;14.40;99.90;;;;;;5048115;28;20046;-76
2021/12/29 06:37:32;;;;;;;7.95;3.33;;;14.30;99.90;;;;;;5047820;28;20029;-76
2021/12/29 06:39:59;;;;;;;8.63;3.03;;;14.30;99.90;;;;;;5012684;28;20057;-77
2021/12/29 06:42:25;;;;;;;6.35;2.63;;;14.20;99.90;;;;;;5004890;28;20022;-77
2021/12/29 06:44:51;;;;;;;11.73;3.33;;;14.20;99.90;;;;;;5016265;28;20080;-76
2021/12/29 06:47:17;;;;;;;10.00;2.90;;;14.00;99.90;;;;;;5016193;28;20032;-77
2021/12/29 06:49:44;;;;;;;5.40;2.67;;;13.90;99.90;;;;;;5015544;28;20071;-76
2021/12/29 06:52:10;;;;;;;5.90;2.72;;;13.90;99.90;;;;;;5016688;28;20497;-76
2021/12/29 06:54:36;;;;;;;8.80;2.30;;;13.80;99.90;;;;;;5016819;28;20478;-77
2021/12/29 06:57:03;;;;;;;5.78;2.47;;;13.70;99.90;;;;;;5016107;28;20113;-76
2021/12/29 06:59:30;;;;;;;8.02;2.47;;;13.80;99.90;;;;;;5016119;28;20478;-76
2021/12/29 07:01:56;;;;;;;7.07;2.58;;;13.80;99.90;;;;;;5019861;28;20431;-76
2021/12/29 07:04:23;;;;;;;6.18;2.35;;;13.80;99.90;;;;;;5020259;28;20030;-76
2021/12/29 07:06:50;;;;;;;6.03;2.30;;;13.80;99.90;;;;;;5020468;28;20017;-76
2021/12/29 07:09:15;;;;;;;7.25;2.67;;;13.70;99.90;;;;;;5019905;28;20076;-76
2021/12/29 07:11:41;;;;;;;6.13;2.63;;;13.60;99.90;;;;;;5020144;28;20022;-76
2021/12/29 07:14:09;;;;;;;4.90;2.25;;;13.60;99.90;;;;;;5020128;28;20414;-76
2021/12/29 07:16:36;;;;;;;6.28;2.92;;;13.60;99.90;;;;;;5020257;28;20026;-76
2021/12/29 07:19:02;;;;;;;3.00;1.98;;;13.70;99.90;;;;;;5019990;28;20398;-76
2021/12/29 07:21:28;;;;;;;13.73;2.45;;;13.70;99.90;;;;;;5020198;28;20045;-76
2021/12/29 07:23:54;;;;;;;6.47;2.50;;;13.70;99.90;;;;;;5019785;28;20465;-76
2021/12/29 07:26:21;;;;;;;9.88;2.63;;;13.70;99.90;;;;;;5019818;28;20026;-74
2021/12/29 07:28:47;;;;;;;6.72;2.70;;;13.70;99.90;;;;;;5050471;28;20046;-73
2021/12/29 07:31:13;;;;;;;6.10;2.40;;;13.70;99.90;;;;;;5019919;28;20034;-74
2021/12/29 07:33:38;;;;;;;9.10;3.22;;;13.80;99.90;;;;;;5019847;28;20454;-74
2021/12/29 07:36:04;;;;;;;5.43;2.63;;;13.80;99.90;;;;;;5019691;28;20022;-73
2021/12/29 07:38:30;;;;;;;6.72;2.30;;;13.80;99.90;;;;;;5018137;28;20048;-73
2021/12/29 07:40:56;;;;;;;5.45;2.25;;;13.80;99.90;;;;;;5019824;28;20501;-74
2021/12/29 07:43:22;;;;;;;5.47;2.25;;;13.80;99.90;;;;;;5016372;28;20049;-74
2021/12/29 07:45:48;;;;;;;7.07;2.53;;;13.90;99.90;;;;;;5019634;28;20026;-74
2021/12/29 07:48:16;;;;;;;9.13;3.10;;;13.90;99.90;;;;;;5019540;28;20048;-74
2021/12/29 07:50:42;;;;;;;10.35;2.65;;;13.90;99.90;;;;;;5018311;28;20030;-73
2021/12/29 07:53:08;;;;;;;4.20;2.17;;;14.00;99.90;;;;;;5019149;28;20022;-74
2021/12/29 07:55:33;;;;;;;8.73;2.50;;;14.00;99.90;;;;;;5018108;28;20114;-73
2021/12/29 07:57:59;;;;;;;11.05;2.85;;;14.10;99.90;;;;;;5017908;28;20026;-74
2021/12/29 08:00:26;;;;;;;5.88;2.55;;;14.10;99.90;;;;;;5019353;28;20037;-74
2021/12/29 08:02:52;;;;;;;4.57;2.50;;;14.20;99.90;;;;;;5019539;28;20025;-74
2021/12/29 08:05:19;;;;;;;10.00;2.45;;;14.30;99.90;;;;;;5018069;28;20026;-74
2021/12/29 08:07:46;;;;;;;10.57;2.83;;;14.30;99.90;;;;;;5018837;28;20525;-74
2021/12/29 08:10:12;;;;;;;4.40;2.10;;;14.40;99.90;;;;;;5019298;28;20033;-73
2021/12/29 08:12:38;;;;;;;5.68;2.88;;;14.50;99.90;;;;;;5017677;28;20083;-73
2021/12/29 08:15:04;;;;;;;7.38;2.42;;;14.50;99.90;;;;;;5014261;28;20086;-73
2021/12/29 08:17:32;;;;;;;6.82;2.30;;;14.60;99.90;;;;;;5017503;28;20168;-74
2021/12/29 08:19:59;;;;;;;7.20;2.30;;;14.70;99.90;;;;;;5018999;28;20021;-74
2021/12/29 08:22:25;;;;;;;3.85;1.70;;;14.80;99.90;;;;;;5018668;28;20014;-73
2021/12/29 08:24:51;;;;;;;9.00;2.70;;;14.80;99.90;;;;;;5018229;28;20021;-73
2021/12/29 08:27:16;;;;;;;4.43;2.15;;;14.80;99.90;;;;;;5018291;28;20033;-73
2021/12/29 08:29:42;;;;;;;5.68;1.98;;;14.90;99.90;;;;;;5018827;28;20037;-73
2021/12/29 08:32:08;;;;;;;5.28;2.25;;;15.00;99.90;;;;;;5018902;28;20033;-74
2021/12/29 08:34:34;;;;;;;7.95;2.60;;;15.10;99.90;;;;;;5018769;28;20053;-73
2021/12/29 08:37:00;;;;;;;5.10;2.47;;;15.20;99.90;;;;;;5018236;28;20026;-75
2021/12/29 08:39:25;;;;;;;7.57;3.10;;;15.30;99.90;;;;;;5017363;28;20198;-75
2021/12/29 08:41:52;;;;;;;9.50;5.28;;;15.30;99.90;;;;;;5018357;28;20025;-75
2021/12/29 08:44:19;;;;;;;8.93;3.55;;;15.40;99.90;;;;;;5017316;28;20026;-75
2021/12/29 08:46:47;;;;;;;10.55;3.55;;;15.50;99.90;;;;;;5017074;28;20030;-75
2021/12/29 08:49:14;;;;;;;9.85;3.83;;;15.60;99.90;;;;;;5017186;28;20022;-74
2021/12/29 08:51:40;;;;;;;7.47;3.15;;;15.60;99.90;;;;;;5018293;28;20026;-75
2021/12/29 08:54:06;;;;;;;5.43;2.42;;;15.70;99.90;;;;;;5004961;28;20118;-75
2021/12/29 08:56:32;;;;;;;5.10;2.22;;;15.70;99.90;;;;;;5017578;28;20398;-76
2021/12/29 08:58:58;;;;;;;5.95;2.25;;;15.80;99.90;;;;;;5018381;28;20022;-75
2021/12/29 09:01:25;;;;;;;5.00;2.03;;;15.80;99.90;;;;;;5016848;28;20025;-76
2021/12/29 09:03:52;;;;;;;4.63;1.80;;;15.90;99.90;;;;;;5016834;28;20406;-75
2021/12/29 09:06:19;;;;;;;7.60;2.03;;;15.90;99.90;;;;;;5016324;28;20022;-75
2021/12/29 09:08:46;;;;;;;4.57;2.40;;;16.00;99.90;;;;;;5037874;28;20058;-75
2021/12/29 09:11:12;;;;;;;3.17;1.75;;;16.00;99.90;;;;;;5037474;28;20079;-75
2021/12/29 09:13:38;;;;;;;4.82;1.80;;;16.10;99.90;;;;;;5017776;28;20105;-75
2021/12/29 09:16:05;;;;;;;6.20;2.30;;;16.10;99.90;;;;;;5049245;28;20104;-77
2021/12/29 09:18:32;;;;;;;3.33;1.80;;;16.20;99.90;;;;;;5013893;28;20085;-77
2021/12/29 09:21:06;;;;;;;4.57;1.80;;;16.30;99.90;;;;;;5017155;28;20406;-77
2021/12/29 09:23:33;;;;;;;3.60;1.50;;;16.30;99.90;;;;;;5016513;28;20105;-77
2021/12/29 09:25:59;;;;;;;3.53;1.80;;;16.30;99.90;;;;;;5016118;28;20030;-77
2021/12/29 09:28:25;;;;;;;4.30;1.70;;;16.40;99.90;;;;;;5017567;28;20025;-77
2021/12/29 09:30:52;;;;;;;6.18;2.17;;;16.30;99.90;;;;;;5017828;28;20034;-78
2021/12/29 09:33:19;;;;;;;5.10;1.83;;;16.30;99.90;;;;;;5017538;28;20041;-78
2021/12/29 09:35:47;;;;;;;6.13;2.05;;;16.30;99.90;;;;;;5016359;28;20113;-78
2021/12/29 09:38:16;;;;;;;4.80;1.80;;;16.30;99.90;;;;;;5015858;28;20172;-77
2021/12/29 09:40:43;;;;;;;6.53;1.83;;;16.20;99.90;;;;;;5017594;28;20025;-77
2021/12/29 09:43:09;;;;;;;5.63;2.20;;;16.10;99.90;;;;;;5017612;28;20044;-77
2021/12/29 09:45:37;;;;;;;3.67;2.20;;;16.20;99.90;;;;;;5017803;28;20455;-77
2021/12/29 09:48:04;;;;;;;8.05;2.03;;;16.20;99.90;;;;;;5016008;28;20118;-77
2021/12/29 09:50:30;;;;;;;5.95;2.33;;;16.30;99.90;;;;;;5016192;28;20057;-77
2021/12/29 09:52:57;;;;;;;4.93;1.70;;;16.40;99.90;;;;;;5017053;28;20028;-77
2021/12/29 09:55:25;;;;;;;6.20;1.65;;;16.50;99.90;;;;;;5017370;28;20049;-77
2021/12/29 09:57:53;;;;;;;1.77;1.42;;;16.60;99.90;;;;;;5015769;28;20033;-77
2021/12/29 10:00:19;;;;;;;4.80;1.80;;;16.70;99.90;;;;;;5017295;28;20470;-77
2021/12/29 10:02:45;;;;;;;2.60;1.50;;;16.80;99.90;;;;;;5010292;28;20450;-77
2021/12/29 10:05:10;;;;;;;4.10;1.80;;;16.90;99.90;;;;;;5017382;28;20026;-77
2021/12/29 10:07:36;;;;;;;5.25;1.83;;;16.90;99.90;;;;;;5015429;28;20092;-77
2021/12/29 10:10:14;;;;;;;3.35;1.67;;;16.90;99.90;;;;;;5017400;28;20029;-76
2021/12/29 10:12:45;;;;;;;3.17;1.75;;;16.90;99.90;;;;;;5016969;28;20030;-75
2021/12/29 10:15:10;;;;;;;5.45;1.83;;;16.80;99.90;;;;;;5017355;28;20054;-76
2021/12/29 10:17:36;;;;;;;7.18;2.05;;;16.80;99.90;;;;;;5016934;28;20038;-75
2021/12/29 10:20:20;;;;;;;3.53;1.25;;;16.70;99.90;;;;;;5017061;28;20026;-76
2021/12/29 10:22:55;;;;;;;8.27;1.80;;;16.80;99.90;;;;;;5013416;28;20024;-76
2021/12/29 10:25:24;;;;;;;4.55;1.85;;;16.80;99.90;;;;;;5032796;28;20026;-76
2021/12/29 10:27:53;;;;;;;3.25;1.30;;;16.90;99.90;;;;;;5015728;28;20092;-75
2021/12/29 10:30:29;;;;;;;2.22;1.30;;;16.90;99.90;;;;;;5016949;28;20026;-76
2021/12/29 10:32:58;;;;;;;5.55;2.15;;;16.90;99.90;;;;;;5017203;28;20109;-77
2021/12/29 10:35:32;;;;;;;4.82;1.90;;;16.90;99.90;;;;;;5018007;28;20022;-75
2021/12/29 10:38:20;;;;;;;4.65;1.95;;;16.90;99.90;;;;;;5019217;28;20030;-76
2021/12/29 10:40:46;;;;;;;3.92;2.00;;;16.90;99.90;;;;;;5020645;28;20449;-76
2021/12/29 10:43:12;;;;;;;4.47;1.67;;;16.80;99.90;;;;;;5018743;28;20033;-76
2021/12/29 10:45:41;;;;;;;3.00;1.63;;;16.70;99.90;;;;;;5002250;28;20019;-76
2021/12/29 10:48:23;;;;;;;9.55;2.47;;;16.50;99.90;;;;;;5012100;28;20053;-76
2021/12/29 10:51:08;;;;;;;3.88;1.90;;;16.30;99.90;;;;;;5018559;28;20019;-75
2021/12/29 10:53:38;;;;;;;4.00;1.98;;;15.90;99.90;;;;;;5020718;28;20470;-76
2021/12/29 10:56:24;;;;;;;6.07;2.00;;;15.50;99.90;;;;;;5019129;28;20103;-76
2021/12/29 10:58:53;;;;;;;3.53;2.05;;;15.20;99.90;;;;;;5019802;28;20441;-77
2021/12/29 11:01:20;;;;;;;8.93;2.67;;;14.90;99.90;;;;;;5019995;28;20056;-77
2021/12/29 11:03:55;;;;;;;5.15;2.70;;;14.70;99.90;;;;;;5020224;28;21139;-76
2021/12/29 11:06:24;;;;;;;2.92;1.85;;;14.60;99.90;;;;;;5021852;28;20075;-75
2021/12/29 11:08:55;;;;;;;11.13;3.22;;;14.60;99.90;;;;;;5023602;28;20042;-75
2021/12/29 11:11:43;;;;;;;4.20;2.53;;;14.70;99.90;;;;;;5007313;28;20018;-75
2021/12/29 11:14:12;;;;;;;7.35;2.28;;;14.80;99.90;;;;;;5020115;28;20057;-75
2021/12/29 11:16:39;;;;;;;4.60;2.00;;;14.90;99.90;;;;;;5018827;28;20113;-77
2021/12/29 11:19:05;;;;;;;8.73;2.50;;;15.00;99.90;;;;;;5018193;28;20026;-77
2021/12/29 11:21:36;;;;;;;3.20;2.08;;;15.10;99.90;;;;;;5015618;28;20029;-76
2021/12/29 11:24:38;;;;;;;4.10;1.80;;;15.10;99.90;;;;;;5019837;28;20518;-77
2021/12/29 11:27:17;;;;;;;3.75;1.98;;;15.20;99.90;;;;;;4997375;28;20510;-77
2021/12/29 11:30:05;;;;;;;3.03;1.70;;;15.20;99.90;;;;;;5013979;28;20041;-77
2021/12/29 11:32:35;;;;;;;2.20;1.67;;;15.20;99.90;;;;;;5019896;28;20026;-76
2021/12/29 11:35:17;;;;;;;3.75;1.73;;;15.10;99.90;;;;;;5019678;28;20164;-76
2021/12/29 11:37:56;;;;;;;5.68;2.33;;;15.10;99.90;;;;;;5019472;28;20500;-76
2021/12/29 11:40:28;;;;;;;8.38;2.38;;;15.00;99.90;;;;;;5019213;28;20025;-77
2021/12/29 11:42:54;;;;;;;5.20;2.00;;;15.00;99.90;;;;;;5019541;28;20072;-76
2021/12/29 11:45:21;;;;;;;2.95;1.88;;;14.90;99.90;;;;;;5019656;28;20547;-76
2021/12/29 11:47:47;;;;;;;8.18;2.90;;;14.80;99.90;;;;;;5019180;28;20160;-76
2021/12/29 11:50:26;;;;;;;4.53;2.40;;;14.80;99.90;;;;;;5019714;28;20445;-77
2021/12/29 11:53:00;;;;;;;3.45;2.00;;;14.70;99.90;;;;;;5019205;28;20092;-76
2021/12/29 11:55:32;;;;;;;4.70;2.05;;;14.70;99.90;;;;;;5019575;28;20386;-76
2021/12/29 11:58:11;;;;;;;4.97;2.40;;;14.70;99.90;;;;;;5019154;28;20028;-77
2021/12/29 12:00:37;;;;;;;5.50;1.95;;;14.70;99.90;;;;;;5018051;28;20572;-78
2021/12/29 12:03:09;;;;;;;6.05;1.98;;;14.80;99.90;;;;;;5017978;28;20089;-77
2021/12/29 12:05:41;;;;;;;4.90;2.35;;;14.80;99.90;;;;;;5019393;28;20095;-77
2021/12/29 12:08:25;;;;;;;7.50;1.90;;;14.90;99.90;;;;;;5019010;28;20091;-77
2021/12/29 12:10:52;;;;;;;4.97;2.00;;;15.00;99.90;;;;;;5017673;28;20033;-77
2021/12/29 12:13:29;;;;;;;2.97;2.10;;;15.10;99.90;;;;;;5017625;28;20053;-77
2021/12/29 12:16:07;;;;;;;2.67;1.67;;;15.20;99.90;;;;;;5013215;28;20502;-77
2021/12/29 12:18:53;;;;;;;5.45;2.28;;;15.40;99.90;;;;;;5018917;28;20517;-77
2021/12/29 12:21:32;;;;;;;6.43;2.35;;;15.50;99.90;;;;;;5008979;28;20026;-77
2021/12/29 12:24:16;;;;;;;4.82;1.90;;;15.60;99.90;;;;;;5017299;28;20034;-77
2021/12/29 12:26:54;;;;;;;5.15;2.13;;;15.70;99.90;;;;;;5017587;28;20029;-77
2021/12/29 12:29:21;;;;;;;10.25;2.05;;;15.70;99.90;;;;;;5018836;28;20057;-78
2021/12/29 12:32:10;;;;;;;4.05;1.73;;;15.80;99.90;;;;;;5018711;28;20030;-77
2021/12/29 12:34:48;;;;;;;2.70;1.85;;;15.80;99.90;;;;;;5018633;28;20029;-77
2021/12/29 12:37:16;;;;;;;5.05;1.70;;;15.90;99.90;;;;;;5018331;28;20364;-76
2021/12/29 12:39:56;;;;;;;5.15;2.03;;;16.00;99.90;;;;;;5018499;28;20033;-76
2021/12/29 12:42:23;;;;;;;6.18;1.65;;;16.00;99.90;;;;;;5018760;28;20022;-76
2021/12/29 12:44:49;;;;;;;1.73;1.33;;;16.10;99.90;;;;;;5018480;28;20029;-76
2021/12/29 12:47:16;;;;;;;5.20;2.53;;;16.10;99.90;;;;;;5017186;28;20076;-76
2021/12/29 12:49:46;;;;;;;6.05;2.30;;;16.20;99.90;;;;;;5016927;28;20022;-76
2021/12/29 12:52:13;;;;;;;2.77;1.70;;;16.30;99.90;;;;;;5016934;28;20064;-76
2021/12/29 12:54:56;;;;;;;2.88;2.05;;;16.30;99.90;;;;;;5018126;28;20271;-74